createdAt,value
2023-03-17T00:01:16.471Z,100.00
2023-03-17T00:03:45.611Z,100.00
2023-03-17T00:06:16.778Z,100.00
2023-03-17T00:08:45.745Z,100.00
2023-03-17T00:11:14.978Z,100.00
2023-03-17T00:13:41.829Z,100.00
2023-03-17T00:16:16.907Z,100.00
2023-03-17T00:18:44.677Z,100.00
2023-03-17T00:21:15.789Z,100.00
2023-03-17T00:23:47.389Z,100.00
2023-03-17T00:26:14.287Z,100.00
2023-03-17T00:28:40.940Z,100.00
2023-03-17T00:31:29.441Z,100.00
2023-03-17T00:33:57.091Z,100.00
2023-03-17T00:36:28.113Z,100.00
2023-03-17T00:38:54.691Z,100.00
2023-03-17T00:41:22.279Z,100.00
2023-03-17T00:43:49.373Z,100.00
2023-03-17T00:46:19.951Z,100.00
2023-03-17T00:48:46.791Z,100.00
2023-03-17T00:51:13.330Z,100.00
2023-03-17T00:53:39.858Z,100.00
2023-03-17T00:56:13.450Z,100.00
2023-03-17T00:58:41.069Z,100.00
2023-03-17T01:01:08.696Z,100.00
2023-03-17T01:03:35.782Z,100.00
2023-03-17T01:06:04.562Z,100.00
2023-03-17T01:08:31.776Z,100.00
2023-03-17T01:11:00.077Z,100.00
2023-03-17T01:13:26.612Z,100.00
2023-03-17T01:15:53.247Z,100.00
2023-03-17T01:18:22.783Z,100.00
2023-03-17T01:20:50.384Z,100.00
2023-03-17T01:23:17.668Z,100.00
2023-03-17T01:25:44.888Z,100.00
2023-03-17T01:28:14.845Z,100.00
2023-03-17T01:30:42.443Z,100.00
2023-03-17T01:33:10.458Z,100.00
2023-03-17T01:35:38.330Z,100.00
2023-03-17T01:38:05.956Z,100.00
2023-03-17T01:40:37.369Z,100.00
2023-03-17T01:43:29.498Z,100.00
2023-03-17T01:46:23.104Z,100.00
2023-03-17T01:49:11.236Z,100.00
2023-03-17T01:51:53.693Z,100.00
2023-03-17T01:54:42.054Z,100.00
2023-03-17T01:57:15.249Z,100.00
2023-03-17T01:59:55.411Z,100.00
2023-03-17T02:02:28.679Z,100.00
2023-03-17T02:04:55.247Z,100.00
2023-03-17T02:07:24.441Z,100.00
2023-03-17T02:09:52.554Z,100.00
2023-03-17T02:12:19.237Z,100.00
2023-03-17T02:14:46.742Z,100.00
2023-03-17T02:17:13.414Z,100.00
2023-03-17T02:19:39.890Z,100.00
2023-03-17T02:22:06.607Z,100.00
2023-03-17T02:24:41.351Z,100.00
2023-03-17T02:27:33.841Z,100.00
2023-03-17T02:30:01.124Z,100.00
2023-03-17T02:32:27.665Z,100.00
2023-03-17T02:34:54.184Z,100.00
2023-03-17T02:37:20.644Z,100.00
2023-03-17T02:39:48.238Z,100.00
2023-03-17T02:42:14.699Z,100.00
2023-03-17T02:44:41.160Z,100.00
2023-03-17T02:47:08.403Z,100.00
2023-03-17T02:49:37.213Z,100.00
2023-03-17T02:52:05.583Z,100.00
2023-03-17T02:54:32.163Z,100.00
2023-03-17T02:56:59.605Z,100.00
2023-03-17T02:59:26.385Z,100.00
2023-03-17T03:01:53.012Z,100.00
2023-03-17T03:04:20.329Z,100.00
2023-03-17T03:06:47.721Z,100.00
2023-03-17T03:09:15.172Z,100.00
2023-03-17T03:11:42.678Z,100.00
2023-03-17T03:14:10.045Z,100.00
2023-03-17T03:16:36.805Z,100.00
2023-03-17T03:19:03.511Z,100.00
2023-03-17T03:21:29.947Z,100.00
2023-03-17T03:23:56.479Z,100.00
2023-03-17T03:26:23.132Z,100.00
2023-03-17T03:28:49.662Z,100.00
2023-03-17T03:31:16.252Z,100.00
2023-03-17T03:33:44.508Z,100.00
2023-03-17T03:36:11.527Z,100.00
2023-03-17T03:38:38.249Z,100.00
2023-03-17T03:41:05.117Z,100.00
2023-03-17T03:43:31.619Z,100.00
2023-03-17T03:45:59.078Z,100.00
2023-03-17T03:48:25.813Z,100.00
2023-03-17T03:50:59.899Z,100.00
2023-03-17T03:53:26.669Z,100.00
2023-03-17T03:55:55.079Z,100.00
2023-03-17T03:58:22.118Z,100.00
2023-03-17T04:00:48.662Z,100.00
2023-03-17T04:03:16.002Z,100.00
2023-03-17T04:05:42.848Z,100.00
2023-03-17T04:08:09.369Z,100.00
2023-03-17T04:10:35.891Z,100.00
2023-03-17T04:13:02.359Z,100.00
2023-03-17T04:15:29.056Z,100.00
2023-03-17T04:17:56.686Z,100.00
2023-03-17T04:20:23.742Z,100.00
2023-03-17T04:22:50.244Z,100.00
2023-03-17T04:25:17.904Z,100.00
2023-03-17T04:27:45.038Z,100.00
2023-03-17T04:30:13.864Z,100.00
2023-03-17T04:32:40.959Z,100.00
2023-03-17T04:35:09.214Z,100.00
2023-03-17T04:37:36.108Z,100.00
2023-03-17T04:40:02.522Z,100.00
2023-03-17T04:42:29.625Z,100.00
2023-03-17T04:44:56.017Z,100.00
2023-03-17T04:47:22.417Z,100.00
2023-03-17T04:49:48.829Z,100.00
2023-03-17T04:52:15.240Z,100.00
2023-03-17T04:54:42.193Z,100.00
2023-03-17T04:57:10.038Z,100.00
2023-03-17T04:59:36.742Z,100.00
2023-03-17T05:02:03.481Z,100.00
2023-03-17T05:04:32.028Z,100.00
2023-03-17T05:06:59.696Z,100.00
2023-03-17T05:09:27.173Z,100.00
2023-03-17T05:11:53.877Z,100.00
2023-03-17T05:14:20.648Z,100.00
2023-03-17T05:16:50.670Z,100.00
2023-03-17T05:19:18.126Z,100.00
2023-03-17T05:21:44.682Z,100.00
2023-03-17T05:24:11.687Z,100.00
2023-03-17T05:26:38.408Z,100.00
2023-03-17T05:29:05.056Z,100.00
2023-03-17T05:31:32.004Z,100.00
2023-03-17T05:33:58.865Z,100.00
2023-03-17T05:36:26.065Z,100.00
2023-03-17T05:38:53.197Z,100.00
2023-03-17T05:41:20.165Z,100.00
2023-03-17T05:43:46.868Z,100.00
2023-03-17T05:46:13.744Z,100.00
2023-03-17T05:48:40.717Z,100.00
2023-03-17T05:51:07.672Z,100.00
2023-03-17T05:53:35.067Z,100.00
2023-03-17T05:56:01.662Z,100.00
2023-03-17T05:58:28.493Z,100.00
2023-03-17T06:00:55.247Z,100.00
2023-03-17T06:03:22.436Z,100.00
2023-03-17T06:05:48.913Z,100.00
2023-03-17T06:08:15.338Z,100.00
2023-03-17T06:10:43.068Z,100.00
2023-03-17T06:13:09.592Z,100.00
2023-03-17T06:15:38.606Z,100.00
2023-03-17T06:18:06.093Z,99.90
2023-03-17T06:20:33.417Z,100.00
2023-03-17T06:23:04.889Z,100.00
2023-03-17T06:25:32.657Z,96.71
2023-03-17T06:28:02.840Z,92.97
2023-03-17T06:30:30.694Z,91.48
2023-03-17T06:32:57.287Z,87.76
2023-03-17T06:35:25.272Z,87.27
2023-03-17T06:37:51.831Z,85.74
2023-03-17T06:40:18.425Z,82.91
2023-03-17T06:42:44.954Z,78.60
2023-03-17T06:45:12.101Z,75.27
2023-03-17T06:47:39.794Z,71.16
2023-03-17T06:50:09.744Z,68.88
2023-03-17T06:52:37.184Z,67.92
2023-03-17T06:55:04.470Z,65.72
2023-03-17T06:57:31.775Z,62.09
2023-03-17T06:59:58.258Z,60.53
2023-03-17T07:02:24.986Z,59.14
2023-03-17T07:04:52.068Z,58.83
2023-03-17T07:07:20.242Z,58.14
2023-03-17T07:09:47.782Z,57.75
2023-03-17T07:12:14.516Z,57.49
2023-03-17T07:14:41.696Z,57.65
2023-03-17T07:17:13.413Z,58.10
2023-03-17T07:19:40.753Z,56.48
2023-03-17T07:22:08.058Z,56.27
2023-03-17T07:24:34.540Z,55.81
2023-03-17T07:27:01.044Z,56.16
2023-03-17T07:29:29.180Z,56.56
2023-03-17T07:31:56.016Z,54.93
2023-03-17T07:34:23.161Z,54.13
2023-03-17T07:36:49.641Z,53.05
2023-03-17T07:39:16.653Z,52.10
2023-03-17T07:41:44.158Z,51.93
2023-03-17T07:44:11.445Z,51.53
2023-03-17T07:46:38.963Z,51.57
2023-03-17T07:49:06.210Z,50.36
2023-03-17T07:51:35.209Z,49.21
2023-03-17T07:54:06.029Z,48.49
2023-03-17T07:56:32.892Z,48.27
2023-03-17T07:59:00.029Z,46.57
2023-03-17T08:01:27.982Z,46.52
2023-03-17T08:03:55.601Z,45.68
2023-03-17T08:06:25.269Z,45.93
2023-03-17T08:08:53.328Z,45.40
2023-03-17T08:11:20.794Z,45.66
2023-03-17T08:13:48.004Z,46.01
2023-03-17T08:16:14.506Z,45.21
2023-03-17T08:18:41.127Z,45.86
2023-03-17T08:21:07.653Z,45.95
2023-03-17T08:23:34.131Z,46.06
2023-03-17T08:26:03.218Z,45.47
2023-03-17T08:28:30.541Z,44.59
2023-03-17T08:31:10.382Z,43.24
2023-03-17T08:33:40.899Z,43.82
2023-03-17T08:36:09.474Z,44.20
2023-03-17T08:38:37.446Z,44.21
2023-03-17T08:41:07.993Z,43.58
2023-03-17T09:00:48.880Z,41.55
2023-03-17T09:03:16.236Z,40.45
2023-03-17T09:05:43.997Z,39.29
2023-03-17T09:08:11.964Z,39.48
2023-03-17T09:10:38.991Z,39.78
2023-03-17T09:13:05.537Z,39.40
2023-03-17T09:15:33.910Z,38.73
2023-03-17T09:18:01.235Z,39.75
2023-03-17T09:20:29.510Z,39.11
2023-03-17T09:22:56.477Z,36.54
2023-03-17T09:25:23.637Z,38.56
2023-03-17T09:27:50.357Z,38.94
2023-03-17T09:30:17.671Z,37.52
2023-03-17T09:32:45.180Z,39.54
2023-03-17T09:35:12.413Z,39.11
2023-03-17T09:37:40.049Z,39.43
2023-03-17T09:40:09.135Z,36.80
2023-03-17T09:42:42.064Z,37.17
2023-03-17T09:45:13.962Z,37.26
2023-03-17T09:48:01.944Z,38.57
2023-03-17T09:50:37.952Z,37.95
2023-03-17T09:53:12.306Z,37.18
2023-03-17T09:55:39.204Z,35.91
2023-03-17T09:58:05.742Z,34.70
2023-03-17T10:00:32.643Z,35.03
2023-03-17T10:02:59.736Z,34.20
2023-03-17T10:05:30.112Z,34.57
2023-03-17T10:08:02.733Z,30.85
2023-03-17T10:10:55.816Z,31.07
2023-03-17T10:13:32.376Z,31.38
2023-03-17T10:16:14.355Z,33.93
2023-03-17T10:18:56.776Z,33.43
2023-03-17T10:21:29.410Z,32.76
2023-03-17T10:23:57.689Z,32.51
2023-03-17T10:26:31.555Z,34.44
2023-03-17T10:28:59.709Z,33.25
2023-03-17T10:31:33.278Z,34.69
2023-03-17T10:34:13.299Z,34.62
2023-03-17T10:36:44.431Z,35.00
2023-03-17T10:39:14.442Z,34.66
2023-03-17T10:41:48.591Z,35.04
2023-03-17T10:44:28.350Z,35.50
2023-03-17T10:46:56.462Z,34.60
2023-03-17T10:49:24.570Z,35.77
2023-03-17T10:51:53.920Z,34.07
2023-03-17T10:54:23.700Z,34.61
2023-03-17T10:57:00.438Z,33.13
2023-03-17T10:59:37.515Z,34.94
2023-03-17T11:02:18.924Z,32.46
2023-03-17T11:04:45.661Z,34.80
2023-03-17T11:07:30.168Z,32.91
2023-03-17T11:10:02.728Z,34.45
2023-03-17T11:12:36.545Z,32.13
2023-03-17T11:15:17.737Z,32.92
2023-03-17T11:17:57.113Z,31.37
2023-03-17T11:20:38.477Z,33.68
2023-03-17T11:23:43.552Z,31.64
2023-03-17T11:26:45.664Z,31.98
2023-03-17T11:29:22.364Z,30.91
2023-03-17T11:31:59.260Z,30.81
2023-03-17T11:34:58.990Z,31.10
2023-03-17T11:37:31.466Z,31.07
2023-03-17T11:40:20.089Z,29.91
2023-03-17T11:43:05.161Z,33.79
2023-03-17T11:45:37.599Z,31.05
2023-03-17T11:48:41.643Z,31.01
2023-03-17T11:51:21.082Z,30.85
2023-03-17T11:53:59.888Z,29.91
2023-03-17T11:56:52.161Z,30.67
2023-03-17T11:59:56.270Z,30.48
2023-03-17T12:02:45.755Z,31.68
2023-03-17T12:05:23.749Z,32.42
2023-03-17T12:07:55.405Z,31.09
2023-03-17T12:10:25.630Z,31.38
2023-03-17T12:12:58.144Z,31.15
2023-03-17T12:15:44.153Z,31.07
2023-03-17T12:18:16.321Z,30.55
2023-03-17T12:20:57.850Z,31.04
2023-03-17T12:23:38.968Z,30.85
2023-03-17T12:26:12.340Z,31.24
2023-03-17T12:28:49.511Z,29.64
2023-03-17T12:31:21.624Z,30.67
2023-03-17T12:34:11.573Z,32.50
2023-03-17T12:36:39.177Z,30.33
2023-03-17T12:39:13.492Z,31.74
2023-03-17T12:42:01.665Z,30.98
2023-03-17T12:44:28.026Z,31.03
2023-03-17T12:47:21.934Z,30.97
2023-03-17T12:50:05.838Z,32.04
2023-03-17T12:53:10.268Z,31.00
2023-03-17T12:55:38.101Z,31.78
2023-03-17T12:58:20.515Z,30.83
2023-03-17T13:00:50.641Z,30.30
2023-03-17T13:03:23.799Z,30.60
2023-03-17T13:05:55.120Z,32.65
2023-03-17T13:08:35.045Z,32.47
2023-03-17T13:11:18.931Z,31.75
2023-03-17T13:13:55.164Z,31.97
2023-03-17T13:16:32.977Z,32.62
2023-03-17T13:19:31.159Z,31.40
2023-03-17T13:22:04.062Z,31.58
2023-03-17T13:24:50.161Z,31.14
2023-03-17T13:27:32.002Z,29.47
2023-03-17T13:30:00.230Z,29.20
2023-03-17T13:32:26.770Z,29.14
2023-03-17T13:35:00.222Z,28.31
2023-03-17T13:37:33.364Z,29.05
2023-03-17T13:40:31.621Z,29.21
2023-03-17T13:43:16.401Z,29.45
2023-03-17T13:45:44.883Z,29.88
2023-03-17T13:48:47.119Z,29.92
2023-03-17T13:51:22.298Z,29.68
2023-03-17T13:53:57.664Z,29.58
2023-03-17T13:56:50.809Z,30.10
2023-03-17T13:59:38.642Z,30.46
2023-03-17T14:02:17.602Z,29.77
2023-03-17T14:04:56.025Z,31.16
2023-03-17T14:07:27.114Z,31.84
2023-03-17T14:10:02.848Z,32.94
2023-03-17T14:12:41.505Z,31.38
2023-03-17T14:15:11.114Z,30.84
2023-03-17T14:17:59.146Z,31.15
2023-03-17T14:20:27.057Z,31.72
2023-03-17T14:23:02.057Z,31.86
2023-03-17T14:25:37.592Z,31.69
2023-03-17T14:28:09.947Z,31.07
2023-03-17T14:30:37.501Z,31.20
2023-03-17T14:33:21.469Z,31.27
2023-03-17T14:35:50.976Z,32.56
2023-03-17T14:38:35.536Z,31.18
2023-03-17T14:41:13.849Z,31.97
2023-03-17T14:43:40.867Z,31.62
2023-03-17T14:46:16.416Z,32.14
2023-03-17T14:48:44.294Z,31.25
2023-03-17T14:51:23.152Z,31.46
2023-03-17T14:53:51.993Z,31.63
2023-03-17T14:56:24.152Z,32.04
2023-03-17T14:58:51.743Z,31.93
2023-03-17T15:01:41.737Z,30.62
2023-03-17T15:04:12.421Z,30.92
2023-03-17T15:06:52.614Z,31.46
2023-03-17T15:09:27.086Z,31.29
2023-03-17T15:12:03.537Z,31.75
2023-03-17T15:14:33.872Z,32.23
2023-03-17T15:17:04.116Z,32.21
2023-03-17T15:19:44.102Z,32.29
2023-03-17T15:22:29.109Z,33.13
2023-03-17T15:25:01.340Z,32.11
2023-03-17T15:27:30.416Z,33.19
2023-03-17T15:29:57.400Z,32.59
2023-03-17T15:32:26.058Z,31.97
2023-03-17T15:34:54.683Z,32.19
2023-03-17T15:37:30.084Z,33.61
2023-03-17T15:39:57.547Z,33.82
2023-03-17T15:42:26.984Z,34.40
2023-03-17T15:44:53.626Z,35.70
2023-03-17T15:47:22.382Z,36.04
2023-03-17T15:49:50.272Z,36.11
2023-03-17T15:52:21.737Z,36.53
2023-03-17T15:54:48.704Z,36.98
2023-03-17T15:57:15.221Z,37.25
2023-03-17T15:59:41.601Z,37.40
2023-03-17T16:02:26.370Z,38.21
2023-03-17T16:04:53.209Z,38.81
2023-03-17T16:07:19.658Z,39.41
2023-03-17T16:09:46.075Z,40.06
2023-03-17T16:12:13.189Z,40.51
2023-03-17T16:14:40.735Z,40.14
2023-03-17T16:17:15.709Z,40.92
2023-03-17T16:19:42.524Z,41.74
2023-03-17T16:22:37.374Z,42.53
2023-03-17T16:25:06.712Z,42.78
2023-03-17T16:27:33.622Z,42.31
2023-03-17T16:30:00.062Z,42.25
2023-03-17T16:32:27.180Z,42.80
2023-03-17T16:34:53.645Z,43.13
2023-03-17T16:37:20.617Z,43.74
2023-03-17T16:39:47.033Z,44.09
2023-03-17T16:42:22.378Z,43.50
2023-03-17T16:44:49.027Z,44.28
2023-03-17T16:47:16.462Z,44.00
2023-03-17T16:49:42.934Z,44.08
2023-03-17T16:52:10.508Z,43.32
2023-03-17T16:54:38.132Z,44.30
2023-03-17T16:57:07.230Z,44.86
2023-03-17T16:59:34.452Z,45.01
2023-03-17T17:02:04.577Z,45.13
2023-03-17T17:04:34.579Z,45.63
2023-03-17T17:07:01.683Z,45.67
2023-03-17T17:09:31.563Z,45.86
2023-03-17T17:12:00.021Z,45.93
2023-03-17T17:14:27.004Z,46.76
2023-03-17T17:16:55.156Z,46.37
2023-03-17T17:19:23.058Z,46.62
2023-03-17T17:21:50.228Z,47.00
2023-03-17T17:24:20.430Z,48.14
2023-03-17T17:26:47.354Z,48.18
2023-03-17T17:29:14.645Z,48.86
2023-03-17T17:31:42.408Z,49.10
2023-03-17T17:34:09.672Z,49.36
2023-03-17T17:36:36.711Z,49.79
2023-03-17T17:39:03.786Z,49.57
2023-03-17T17:41:32.510Z,50.18
2023-03-17T17:43:59.556Z,51.04
2023-03-17T17:46:26.713Z,50.91
2023-03-17T17:48:53.679Z,50.32
2023-03-17T17:51:20.874Z,51.20
2023-03-17T17:53:47.585Z,50.76
2023-03-17T17:56:18.688Z,51.16
2023-03-17T17:58:46.649Z,51.46
2023-03-17T18:01:17.035Z,52.12
2023-03-17T18:03:43.904Z,52.79
2023-03-17T18:06:13.215Z,52.59
2023-03-17T18:08:40.639Z,52.86
2023-03-17T18:11:08.138Z,52.75
2023-03-17T18:13:36.267Z,53.63
2023-03-17T18:16:05.078Z,55.01
2023-03-17T18:18:32.820Z,54.78
2023-03-17T18:21:00.064Z,52.83
2023-03-17T18:23:28.348Z,53.17
2023-03-17T18:26:05.030Z,54.16
2023-03-17T18:28:33.187Z,53.64
2023-03-17T18:31:06.920Z,54.46
2023-03-17T18:33:35.485Z,54.99
2023-03-17T18:36:06.282Z,55.44
2023-03-17T18:38:34.303Z,55.43
2023-03-17T18:41:02.512Z,55.73
2023-03-17T18:43:29.453Z,55.99
2023-03-17T18:45:58.690Z,56.24
2023-03-17T18:48:25.749Z,56.78
2023-03-17T18:50:57.090Z,57.04
2023-03-17T18:53:24.102Z,57.30
2023-03-17T18:55:51.221Z,57.57
2023-03-17T18:58:19.553Z,58.13
2023-03-17T19:00:47.367Z,56.96
2023-03-17T19:03:15.948Z,56.94
2023-03-17T19:05:51.416Z,58.10
2023-03-17T19:08:19.881Z,58.64
2023-03-17T19:10:46.994Z,58.07
2023-03-17T19:13:14.137Z,58.32
2023-03-17T19:15:41.437Z,57.18
2023-03-17T19:18:08.414Z,57.15
2023-03-17T19:20:36.249Z,58.39
2023-03-17T19:23:07.963Z,58.05
2023-03-17T19:25:34.330Z,58.83
2023-03-17T19:28:00.776Z,58.72
2023-03-17T19:30:27.509Z,59.87
2023-03-17T19:32:54.084Z,61.41
2023-03-17T19:35:20.958Z,62.68
2023-03-17T19:37:47.485Z,67.74
2023-03-17T19:40:14.345Z,68.33
2023-03-17T19:42:41.017Z,70.92
2023-03-17T19:45:08.117Z,71.79
2023-03-17T19:47:34.832Z,69.51
2023-03-17T19:50:01.287Z,66.32
2023-03-17T19:52:27.787Z,65.80
2023-03-17T19:54:54.245Z,69.20
2023-03-17T19:57:21.113Z,68.49
2023-03-17T19:59:47.677Z,67.61
2023-03-17T20:02:15.530Z,66.64
2023-03-17T20:04:42.883Z,66.00
2023-03-17T20:07:10.691Z,65.51
2023-03-17T20:09:37.946Z,66.42
2023-03-17T20:12:05.171Z,68.94
2023-03-17T20:14:31.894Z,68.86
2023-03-17T20:16:58.734Z,70.96
2023-03-17T20:19:26.171Z,78.03
2023-03-17T20:21:53.268Z,79.28
2023-03-17T20:24:19.858Z,75.03
2023-03-17T20:26:49.394Z,77.96
2023-03-17T20:29:16.201Z,77.34
2023-03-17T20:31:44.235Z,82.03
2023-03-17T20:34:11.823Z,77.30
2023-03-17T20:36:42.235Z,73.94
2023-03-17T20:39:09.597Z,74.76
2023-03-17T20:41:36.284Z,75.67
2023-03-17T20:44:02.752Z,74.61
2023-03-17T20:46:29.192Z,73.75
2023-03-17T20:48:58.814Z,73.77
2023-03-17T20:51:28.806Z,72.13
2023-03-17T20:53:56.676Z,72.15
2023-03-17T20:56:24.734Z,72.95
2023-03-17T20:58:53.123Z,74.37
2023-03-17T21:01:21.672Z,76.34
2023-03-17T21:03:49.637Z,79.69
2023-03-17T21:06:16.742Z,79.36
2023-03-17T21:08:43.514Z,79.39
2023-03-17T21:11:16.481Z,83.41
2023-03-17T21:13:44.237Z,82.42
2023-03-17T21:16:20.208Z,81.85
2023-03-17T21:18:47.492Z,83.32
2023-03-17T21:21:14.592Z,81.90
2023-03-17T21:23:41.676Z,81.65
2023-03-17T21:26:11.518Z,84.15
2023-03-17T21:28:41.346Z,82.37
2023-03-17T21:31:09.445Z,84.89
2023-03-17T21:33:36.052Z,84.42
2023-03-17T21:36:02.997Z,85.26
2023-03-17T21:38:29.807Z,87.17
2023-03-17T21:40:57.039Z,86.92
2023-03-17T21:43:24.309Z,85.15
2023-03-17T21:45:51.738Z,86.46
2023-03-17T21:48:18.335Z,86.03
2023-03-17T21:50:44.803Z,89.97
2023-03-17T21:53:14.760Z,91.41
2023-03-17T21:55:41.439Z,92.33
2023-03-17T21:58:08.676Z,91.94
2023-03-17T22:00:44.736Z,97.34
2023-03-17T22:03:12.254Z,95.17
2023-03-17T22:05:38.673Z,94.15
2023-03-17T22:08:05.775Z,98.33
2023-03-17T22:10:32.482Z,98.19
2023-03-17T22:12:59.080Z,94.70
2023-03-17T22:15:25.794Z,94.85
2023-03-17T22:17:53.126Z,99.85
2023-03-17T22:20:19.685Z,98.57
2023-03-17T22:22:46.260Z,94.69
2023-03-17T22:25:12.670Z,92.17
2023-03-17T22:27:39.087Z,90.20
2023-03-17T22:30:06.403Z,92.59
2023-03-17T22:32:32.944Z,87.73
2023-03-17T22:35:00.130Z,89.50
2023-03-17T22:37:26.713Z,91.65
2023-03-17T22:39:53.160Z,96.13
2023-03-17T22:42:19.591Z,98.00
2023-03-17T22:44:46.218Z,91.53
2023-03-17T22:47:12.706Z,92.66
2023-03-17T22:49:39.162Z,96.94
2023-03-17T22:52:05.980Z,98.87
2023-03-17T22:54:32.392Z,94.91
2023-03-17T22:56:59.056Z,93.62
2023-03-17T22:59:25.577Z,92.25
2023-03-17T23:01:51.983Z,90.65
2023-03-17T23:04:18.498Z,91.56
2023-03-17T23:06:44.953Z,93.93
2023-03-17T23:09:11.405Z,96.61
2023-03-17T23:11:37.967Z,95.24
2023-03-17T23:14:05.593Z,96.47
2023-03-17T23:16:32.144Z,98.28
2023-03-17T23:18:59.300Z,98.99
2023-03-17T23:21:34.650Z,98.74
2023-03-17T23:24:01.803Z,96.84
2023-03-17T23:26:29.078Z,98.69
2023-03-17T23:28:55.801Z,99.83
2023-03-17T23:31:22.733Z,99.52
2023-03-17T23:33:50.424Z,98.20
2023-03-17T23:36:18.032Z,99.78
2023-03-17T23:38:45.820Z,99.97
2023-03-17T23:41:13.323Z,99.12
2023-03-17T23:43:40.145Z,100.00
2023-03-17T23:46:06.769Z,100.00
2023-03-17T23:48:33.941Z,100.00
2023-03-17T23:51:01.036Z,100.00
2023-03-17T23:53:28.390Z,100.00
2023-03-17T23:55:55.037Z,100.00
2023-03-17T23:58:22.809Z,100.00
